sensor_id;sensor_type;location;lat;lon;timestamp;pressure;altitude;pressure_sealevel;temperature;humidity
4346;BME280;2186;49.866;7.986;2022-10-16T00:02:16;99937.84;;;15.72;100.00
4346;BME280;2186;49.866;7.986;2022-10-16T00:04:42;99950.22;;;15.75;100.00
4346;BME280;2186;49.866;7.986;2022-10-16T00:07:09;99943.22;;;15.72;100.00
4346;BME280;2186;49.866;7.986;2022-10-16T00:09:35;99929.03;;;15.70;100.00
4346;BME280;2186;49.866;7.986;2022-10-16T00:12:02;99931.41;;;15.59;100.00
4346;BME280;2186;49.866;7.986;2022-10-16T00:14:30;99932.53;;;15.55;100.00
4346;BME280;2186;49.866;7.986;2022-10-16T00:16:56;99929.47;;;15.62;100.00
4346;BME280;2186;49.866;7.986;2022-10-16T00:19:23;99924.72;;;15.67;100.00
4346;BME280;2186;49.866;7.986;2022-10-16T00:21:49;99931.34;;;15.60;100.00
4346;BME280;2186;49.866;7.986;2022-10-16T00:24:15;99942.78;;;15.80;100.00
4346;BME280;2186;49.866;7.986;2022-10-16T00:26:42;99937.75;;;15.74;100.00
4346;BME280;2186;49.866;7.986;2022-10-16T00:29:09;99938.63;;;15.74;100.00
4346;BME280;2186;49.866;7.986;2022-10-16T00:31:37;99947.63;;;15.89;100.00
4346;BME280;2186;49.866;7.986;2022-10-16T00:34:04;99938.81;;;15.87;100.00
4346;BME280;2186;49.866;7.986;2022-10-16T00:36:30;99933.34;;;15.73;100.00
4346;BME280;2186;49.866;7.986;2022-10-16T00:38:58;99929.13;;;15.68;100.00
4346;BME280;2186;49.866;7.986;2022-10-16T00:41:32;99947.81;;;15.86;100.00
4346;BME280;2186;49.866;7.986;2022-10-16T00:44:03;99946.53;;;15.93;100.00
4346;BME280;2186;49.866;7.986;2022-10-16T00:46:50;99945.56;;;15.94;100.00
4346;BME280;2186;49.866;7.986;2022-10-16T00:49:19;99946.25;;;15.97;100.00
4346;BME280;2186;49.866;7.986;2022-10-16T00:51:51;99947.13;;;15.82;100.00
4346;BME280;2186;49.866;7.986;2022-10-16T00:54:24;99939.94;;;15.83;100.00
4346;BME280;2186;49.866;7.986;2022-10-16T00:56:53;99946.34;;;15.96;100.00
4346;BME280;2186;49.866;7.986;2022-10-16T00:59:23;99937.34;;;15.97;100.00
4346;BME280;2186;49.866;7.986;2022-10-16T01:01:51;99939.94;;;15.98;100.00
4346;BME280;2186;49.866;7.986;2022-10-16T01:04:18;99947.81;;;16.17;100.00
4346;BME280;2186;49.866;7.986;2022-10-16T01:14:58;99963.56;;;16.08;100.00
4346;BME280;2186;49.866;7.986;2022-10-16T01:17:43;99964.16;;;16.13;100.00
4346;BME280;2186;49.866;7.986;2022-10-16T01:25:29;99971.50;;;16.09;100.00
4346;BME280;2186;49.866;7.986;2022-10-16T01:27:59;99965.63;;;16.03;100.00
4346;BME280;2186;49.866;7.986;2022-10-16T01:30:30;99959.38;;;15.86;100.00
4346;BME280;2186;49.866;7.986;2022-10-16T01:33:06;99963.56;;;15.92;100.00
4346;BME280;2186;49.866;7.986;2022-10-16T01:35:39;99962.34;;;15.97;100.00
4346;BME280;2186;49.866;7.986;2022-10-16T01:38:13;99975.22;;;15.91;100.00
4346;BME280;2186;49.866;7.986;2022-10-16T01:40:46;99968.28;;;16.03;100.00
4346;BME280;2186;49.866;7.986;2022-10-16T01:43:22;99966.47;;;16.03;100.00
4346;BME280;2186;49.866;7.986;2022-10-16T01:45:51;99963.81;;;16.19;100.00
4346;BME280;2186;49.866;7.986;2022-10-16T01:48:19;99961.06;;;16.20;100.00
4346;BME280;2186;49.866;7.986;2022-10-16T01:51:10;99971.59;;;16.23;100.00
4346;BME280;2186;49.866;7.986;2022-10-16T01:53:39;99962.00;;;16.19;100.00
4346;BME280;2186;49.866;7.986;2022-10-16T01:56:09;99971.97;;;16.17;100.00
4346;BME280;2186;49.866;7.986;2022-10-16T01:58:42;99978.59;;;16.26;100.00
4346;BME280;2186;49.866;7.986;2022-10-16T02:01:12;99977.72;;;16.25;100.00
4346;BME280;2186;49.866;7.986;2022-10-16T02:03:49;99977.81;;;16.40;100.00
4346;BME280;2186;49.866;7.986;2022-10-16T02:06:18;99983.91;;;16.57;100.00
4346;BME280;2186;49.866;7.986;2022-10-16T02:08:46;99990.34;;;16.55;100.00
4346;BME280;2186;49.866;7.986;2022-10-16T02:11:12;99993.63;;;16.60;100.00
4346;BME280;2186;49.866;7.986;2022-10-16T02:13:46;99990.00;;;16.61;100.00
4346;BME280;2186;49.866;7.986;2022-10-16T02:16:14;99987.47;;;16.58;100.00
4346;BME280;2186;49.866;7.986;2022-10-16T02:18:42;99986.59;;;16.57;100.00
4346;BME280;2186;49.866;7.986;2022-10-16T02:21:16;99989.22;;;16.59;100.00
4346;BME280;2186;49.866;7.986;2022-10-16T02:26:43;100002.78;;;16.56;100.00
4346;BME280;2186;49.866;7.986;2022-10-16T02:29:14;100008.63;;;16.48;100.00
4346;BME280;2186;49.866;7.986;2022-10-16T02:31:46;100006.03;;;16.47;100.00
4346;BME280;2186;49.866;7.986;2022-10-16T02:34:14;99999.09;;;16.43;100.00
4346;BME280;2186;49.866;7.986;2022-10-16T02:36:43;99998.41;;;16.39;100.00
4346;BME280;2186;49.866;7.986;2022-10-16T02:39:10;100001.69;;;16.28;100.00
4346;BME280;2186;49.866;7.986;2022-10-16T02:41:37;99998.84;;;16.32;100.00
4346;BME280;2186;49.866;7.986;2022-10-16T02:44:04;99990.63;;;16.35;100.00
4346;BME280;2186;49.866;7.986;2022-10-16T02:46:31;99999.19;;;16.25;100.00
4346;BME280;2186;49.866;7.986;2022-10-16T02:48:57;99998.41;;;16.23;100.00
4346;BME280;2186;49.866;7.986;2022-10-16T02:51:23;100006.34;;;16.41;100.00
4346;BME280;2186;49.866;7.986;2022-10-16T02:53:50;100009.72;;;16.44;100.00
4346;BME280;2186;49.866;7.986;2022-10-16T02:56:16;99999.78;;;16.46;100.00
4346;BME280;2186;49.866;7.986;2022-10-16T02:58:47;99996.47;;;16.57;100.00
4346;BME280;2186;49.866;7.986;2022-10-16T03:01:14;100002.28;;;16.65;100.00
4346;BME280;2186;49.866;7.986;2022-10-16T03:03:42;100000.09;;;16.56;100.00
4346;BME280;2186;49.866;7.986;2022-10-16T03:06:09;100006.91;;;16.47;100.00
4346;BME280;2186;49.866;7.986;2022-10-16T03:08:35;100017.09;;;16.41;100.00
4346;BME280;2186;49.866;7.986;2022-10-16T03:11:02;100012.69;;;16.40;100.00
4346;BME280;2186;49.866;7.986;2022-10-16T03:13:28;100011.47;;;16.29;100.00
4346;BME280;2186;49.866;7.986;2022-10-16T03:15:54;100006.03;;;16.31;100.00
4346;BME280;2186;49.866;7.986;2022-10-16T03:18:21;100007.59;;;16.35;100.00
4346;BME280;2186;49.866;7.986;2022-10-16T03:20:47;100010.94;;;16.39;100.00
4346;BME280;2186;49.866;7.986;2022-10-16T03:23:13;100011.22;;;16.34;100.00
4346;BME280;2186;49.866;7.986;2022-10-16T03:25:40;100000.16;;;16.24;100.00
4346;BME280;2186;49.866;7.986;2022-10-16T03:28:06;99999.97;;;16.12;100.00
4346;BME280;2186;49.866;7.986;2022-10-16T03:30:33;100002.47;;;15.99;100.00
4346;BME280;2186;49.866;7.986;2022-10-16T03:32:59;100014.22;;;15.96;100.00
4346;BME280;2186;49.866;7.986;2022-10-16T03:35:25;100027.03;;;16.07;100.00
4346;BME280;2186;49.866;7.986;2022-10-16T03:37:52;100029.28;;;15.99;100.00
4346;BME280;2186;49.866;7.986;2022-10-16T03:40:19;100035.28;;;16.04;100.00
4346;BME280;2186;49.866;7.986;2022-10-16T03:42:45;100034.91;;;16.10;100.00
4346;BME280;2186;49.866;7.986;2022-10-16T03:45:12;100018.06;;;16.08;100.00
4346;BME280;2186;49.866;7.986;2022-10-16T03:47:38;100024.78;;;15.99;100.00
4346;BME280;2186;49.866;7.986;2022-10-16T03:50:05;100023.03;;;15.98;100.00
4346;BME280;2186;49.866;7.986;2022-10-16T03:52:32;100028.41;;;15.98;100.00
4346;BME280;2186;49.866;7.986;2022-10-16T03:54:59;100044.19;;;16.05;100.00
4346;BME280;2186;49.866;7.986;2022-10-16T03:57:25;100036.81;;;16.08;100.00
4346;BME280;2186;49.866;7.986;2022-10-16T03:59:52;100029.53;;;15.94;100.00
4346;BME280;2186;49.866;7.986;2022-10-16T04:02:18;100016.34;;;15.74;100.00
4346;BME280;2186;49.866;7.986;2022-10-16T04:04:45;100016.03;;;15.80;100.00
4346;BME280;2186;49.866;7.986;2022-10-16T04:07:11;100016.81;;;15.82;100.00
4346;BME280;2186;49.866;7.986;2022-10-16T04:09:37;100016.22;;;15.93;100.00
4346;BME280;2186;49.866;7.986;2022-10-16T04:12:04;100018.63;;;15.97;100.00
4346;BME280;2186;49.866;7.986;2022-10-16T04:14:30;100016.72;;;15.99;100.00
4346;BME280;2186;49.866;7.986;2022-10-16T04:16:57;100022.97;;;16.00;100.00
4346;BME280;2186;49.866;7.986;2022-10-16T04:19:23;100030.06;;;16.01;100.00
4346;BME280;2186;49.866;7.986;2022-10-16T04:21:49;100037.88;;;16.06;100.00
4346;BME280;2186;49.866;7.986;2022-10-16T04:24:16;100033.44;;;16.05;100.00
4346;BME280;2186;49.866;7.986;2022-10-16T04:26:42;100030.41;;;15.95;100.00
4346;BME280;2186;49.866;7.986;2022-10-16T04:29:08;100031.28;;;15.95;100.00
4346;BME280;2186;49.866;7.986;2022-10-16T04:31:35;100036.72;;;15.94;100.00
4346;BME280;2186;49.866;7.986;2022-10-16T04:34:01;100038.84;;;15.87;100.00
4346;BME280;2186;49.866;7.986;2022-10-16T04:36:28;100039.72;;;15.88;100.00
4346;BME280;2186;49.866;7.986;2022-10-16T04:38:54;100049.66;;;15.86;100.00
4346;BME280;2186;49.866;7.986;2022-10-16T04:41:21;100038.50;;;15.78;100.00
4346;BME280;2186;49.866;7.986;2022-10-16T04:43:47;100031.91;;;15.67;100.00
4346;BME280;2186;49.866;7.986;2022-10-16T04:46:14;100041.34;;;15.57;100.00
4346;BME280;2186;49.866;7.986;2022-10-16T04:48:40;100052.72;;;15.62;100.00
4346;BME280;2186;49.866;7.986;2022-10-16T04:51:06;100051.19;;;15.57;100.00
4346;BME280;2186;49.866;7.986;2022-10-16T04:53:33;100058.13;;;15.61;100.00
4346;BME280;2186;49.866;7.986;2022-10-16T04:56:00;100049.16;;;15.62;100.00
4346;BME280;2186;49.866;7.986;2022-10-16T04:58:26;100040.19;;;15.63;100.00
4346;BME280;2186;49.866;7.986;2022-10-16T05:00:53;100041.66;;;15.51;100.00
4346;BME280;2186;49.866;7.986;2022-10-16T05:03:19;100045.44;;;15.47;100.00
4346;BME280;2186;49.866;7.986;2022-10-16T05:05:46;100044.22;;;15.37;100.00
4346;BME280;2186;49.866;7.986;2022-10-16T05:08:14;100053.19;;;15.36;100.00
4346;BME280;2186;49.866;7.986;2022-10-16T05:10:42;100046.81;;;15.38;100.00
4346;BME280;2186;49.866;7.986;2022-10-16T05:13:09;100038.00;;;15.36;100.00
4346;BME280;2186;49.866;7.986;2022-10-16T05:15:36;100041.28;;;15.41;100.00
4346;BME280;2186;49.866;7.986;2022-10-16T05:18:03;100046.72;;;15.40;100.00
4346;BME280;2186;49.866;7.986;2022-10-16T05:20:29;100043.97;;;15.41;100.00
4346;BME280;2186;49.866;7.986;2022-10-16T05:22:56;100050.97;;;15.44;100.00
4346;BME280;2186;49.866;7.986;2022-10-16T05:25:22;100054.72;;;15.57;100.00
4346;BME280;2186;49.866;7.986;2022-10-16T05:27:49;100065.69;;;15.53;100.00
4346;BME280;2186;49.866;7.986;2022-10-16T05:30:17;100067.84;;;15.63;100.00
4346;BME280;2186;49.866;7.986;2022-10-16T05:32:50;100069.00;;;15.58;100.00
4346;BME280;2186;49.866;7.986;2022-10-16T05:35:18;100066.31;;;15.58;100.00
4346;BME280;2186;49.866;7.986;2022-10-16T05:37:49;100078.72;;;15.60;100.00
4346;BME280;2186;49.866;7.986;2022-10-16T05:40:15;100085.66;;;15.64;100.00
4346;BME280;2186;49.866;7.986;2022-10-16T05:42:42;100085.06;;;15.58;100.00
4346;BME280;2186;49.866;7.986;2022-10-16T05:45:10;100074.59;;;15.53;100.00
4346;BME280;2186;49.866;7.986;2022-10-16T05:47:38;100085.66;;;15.64;100.00
4346;BME280;2186;49.866;7.986;2022-10-16T05:50:05;100089.50;;;15.76;100.00
4346;BME280;2186;49.866;7.986;2022-10-16T05:52:31;100088.78;;;15.73;100.00
4346;BME280;2186;49.866;7.986;2022-10-16T05:54:57;100085.16;;;15.74;100.00
4346;BME280;2186;49.866;7.986;2022-10-16T05:57:24;100094.94;;;15.75;100.00
4346;BME280;2186;49.866;7.986;2022-10-16T05:59:51;100097.59;;;15.75;100.00
4346;BME280;2186;49.866;7.986;2022-10-16T06:02:17;100091.97;;;15.63;100.00
4346;BME280;2186;49.866;7.986;2022-10-16T06:04:44;100099.41;;;15.74;100.00
4346;BME280;2186;49.866;7.986;2022-10-16T06:07:10;100085.78;;;15.79;100.00
4346;BME280;2186;49.866;7.986;2022-10-16T06:09:36;100089.56;;;15.75;100.00
4346;BME280;2186;49.866;7.986;2022-10-16T06:12:03;100098.34;;;15.78;100.00
4346;BME280;2186;49.866;7.986;2022-10-16T06:14:30;100085.25;;;15.72;100.00
4346;BME280;2186;49.866;7.986;2022-10-16T06:16:56;100086.66;;;15.62;100.00
4346;BME280;2186;49.866;7.986;2022-10-16T06:19:23;100092.09;;;15.60;100.00
4346;BME280;2186;49.866;7.986;2022-10-16T06:21:49;100100.44;;;15.72;100.00
4346;BME280;2186;49.866;7.986;2022-10-16T06:24:15;100091.53;;;15.71;100.00
4346;BME280;2186;49.866;7.986;2022-10-16T06:26:42;100100.06;;;15.62;100.00
4346;BME280;2186;49.866;7.986;2022-10-16T06:29:08;100098.06;;;15.48;100.00
4346;BME280;2186;49.866;7.986;2022-10-16T06:31:35;100100.44;;;15.54;100.00
4346;BME280;2186;49.866;7.986;2022-10-16T06:34:01;100110.72;;;15.63;100.00
4346;BME280;2186;49.866;7.986;2022-10-16T06:36:28;100118.25;;;15.73;100.00
4346;BME280;2186;49.866;7.986;2022-10-16T06:38:54;100113.47;;;15.79;100.00
4346;BME280;2186;49.866;7.986;2022-10-16T06:41:22;100113.16;;;15.68;100.00
4346;BME280;2186;49.866;7.986;2022-10-16T06:43:49;100114.34;;;15.80;100.00
4346;BME280;2186;49.866;7.986;2022-10-16T06:46:18;100128.44;;;15.83;100.00
4346;BME280;2186;49.866;7.986;2022-10-16T06:48:44;100127.38;;;15.86;100.00
4346;BME280;2186;49.866;7.986;2022-10-16T06:51:17;100124.63;;;15.87;100.00
4346;BME280;2186;49.866;7.986;2022-10-16T06:53:49;100130.53;;;15.94;100.00
4346;BME280;2186;49.866;7.986;2022-10-16T06:56:32;100139.44;;;15.94;100.00
4346;BME280;2186;49.866;7.986;2022-10-16T06:58:59;100140.16;;;15.98;100.00
4346;BME280;2186;49.866;7.986;2022-10-16T07:01:26;100145.59;;;15.96;100.00
4346;BME280;2186;49.866;7.986;2022-10-16T07:03:53;100153.31;;;16.03;100.00
4346;BME280;2186;49.866;7.986;2022-10-16T07:06:23;100142.34;;;16.07;100.00
4346;BME280;2186;49.866;7.986;2022-10-16T07:08:50;100139.84;;;16.04;100.00
4346;BME280;2186;49.866;7.986;2022-10-16T07:11:20;100136.44;;;16.00;100.00
4346;BME280;2186;49.866;7.986;2022-10-16T07:13:47;100148.41;;;16.11;100.00
4346;BME280;2186;49.866;7.986;2022-10-16T07:16:23;100157.06;;;16.16;100.00
4346;BME280;2186;49.866;7.986;2022-10-16T07:18:50;100154.75;;;16.25;100.00
4346;BME280;2186;49.866;7.986;2022-10-16T07:21:21;100161.16;;;16.23;100.00
4346;BME280;2186;49.866;7.986;2022-10-16T07:23:55;100168.94;;;16.27;100.00
4346;BME280;2186;49.866;7.986;2022-10-16T07:26:23;100175.91;;;16.32;100.00
4346;BME280;2186;49.866;7.986;2022-10-16T07:28:50;100173.13;;;16.33;100.00
4346;BME280;2186;49.866;7.986;2022-10-16T07:31:18;100174.09;;;16.32;100.00
4346;BME280;2186;49.866;7.986;2022-10-16T07:33:46;100168.56;;;16.35;100.00
4346;BME280;2186;49.866;7.986;2022-10-16T07:36:15;100173.38;;;16.44;100.00
4346;BME280;2186;49.866;7.986;2022-10-16T07:38:42;100183.69;;;16.36;100.00
4346;BME280;2186;49.866;7.986;2022-10-16T07:41:11;100186.19;;;16.39;100.00
4346;BME280;2186;49.866;7.986;2022-10-16T07:43:37;100194.00;;;16.44;100.00
4346;BME280;2186;49.866;7.986;2022-10-16T07:46:04;100197.63;;;16.43;100.00
4346;BME280;2186;49.866;7.986;2022-10-16T07:48:33;100204.16;;;16.54;100.00
4346;BME280;2186;49.866;7.986;2022-10-16T07:51:01;100208.13;;;16.47;100.00
4346;BME280;2186;49.866;7.986;2022-10-16T07:53:28;100221.69;;;16.44;100.00
4346;BME280;2186;49.866;7.986;2022-10-16T07:55:59;100230.47;;;16.48;100.00
4346;BME280;2186;49.866;7.986;2022-10-16T07:58:26;100227.00;;;16.46;100.00
4346;BME280;2186;49.866;7.986;2022-10-16T08:00:54;100244.06;;;16.45;100.00
4346;BME280;2186;49.866;7.986;2022-10-16T08:03:21;100239.94;;;16.38;100.00
4346;BME280;2186;49.866;7.986;2022-10-16T08:05:48;100235.41;;;16.55;100.00
4346;BME280;2186;49.866;7.986;2022-10-16T08:08:15;100240.06;;;16.85;100.00
4346;BME280;2186;49.866;7.986;2022-10-16T08:10:42;100234.13;;;16.63;100.00
4346;BME280;2186;49.866;7.986;2022-10-16T08:13:12;100245.03;;;16.59;100.00
4346;BME280;2186;49.866;7.986;2022-10-16T08:15:42;100251.09;;;16.63;100.00
4346;BME280;2186;49.866;7.986;2022-10-16T08:18:10;100255.53;;;16.64;100.00
4346;BME280;2186;49.866;7.986;2022-10-16T08:20:36;100251.28;;;16.60;100.00
4346;BME280;2186;49.866;7.986;2022-10-16T08:23:03;100251.09;;;16.63;100.00
4346;BME280;2186;49.866;7.986;2022-10-16T08:25:29;100252.75;;;16.66;100.00
4346;BME280;2186;49.866;7.986;2022-10-16T08:27:56;100264.34;;;16.66;100.00
4346;BME280;2186;49.866;7.986;2022-10-16T08:30:23;100267.84;;;16.68;100.00
4346;BME280;2186;49.866;7.986;2022-10-16T08:32:50;100271.19;;;16.89;100.00
4346;BME280;2186;49.866;7.986;2022-10-16T08:35:16;100270.22;;;16.74;100.00
4346;BME280;2186;49.866;7.986;2022-10-16T08:37:43;100270.03;;;16.77;100.00
4346;BME280;2186;49.866;7.986;2022-10-16T08:40:20;100282.53;;;16.94;100.00
4346;BME280;2186;49.866;7.986;2022-10-16T08:43:08;100286.59;;;16.85;100.00
4346;BME280;2186;49.866;7.986;2022-10-16T08:48:28;100284.09;;;16.98;100.00
4346;BME280;2186;49.866;7.986;2022-10-16T08:50:56;100288.03;;;17.24;100.00
4346;BME280;2186;49.866;7.986;2022-10-16T08:53:45;100304.78;;;17.29;100.00
4346;BME280;2186;49.866;7.986;2022-10-16T08:56:14;100299.91;;;17.36;100.00
4346;BME280;2186;49.866;7.986;2022-10-16T08:58:48;100293.75;;;17.34;100.00
4346;BME280;2186;49.866;7.986;2022-10-16T09:01:20;100301.78;;;17.65;100.00
4346;BME280;2186;49.866;7.986;2022-10-16T09:11:55;100316.00;;;17.67;100.00
4346;BME280;2186;49.866;7.986;2022-10-16T09:14:37;100321.28;;;17.70;100.00
4346;BME280;2186;49.866;7.986;2022-10-16T09:23:10;100325.34;;;18.08;100.00
4346;BME280;2186;49.866;7.986;2022-10-16T09:25:39;100339.25;;;18.00;100.00
4346;BME280;2186;49.866;7.986;2022-10-16T09:28:08;100327.59;;;17.85;100.00
4346;BME280;2186;49.866;7.986;2022-10-16T09:30:37;100329.72;;;17.63;100.00
4346;BME280;2186;49.866;7.986;2022-10-16T09:33:04;100327.59;;;17.85;100.00
4346;BME280;2186;49.866;7.986;2022-10-16T09:35:37;100328.63;;;17.83;100.00
4346;BME280;2186;49.866;7.986;2022-10-16T09:38:05;100330.38;;;18.14;100.00
4346;BME280;2186;49.866;7.986;2022-10-16T09:40:37;100330.78;;;18.22;100.00
4346;BME280;2186;49.866;7.986;2022-10-16T09:45:55;100348.88;;;18.04;100.00
4346;BME280;2186;49.866;7.986;2022-10-16T09:48:22;100350.13;;;17.98;100.00
4346;BME280;2186;49.866;7.986;2022-10-16T09:50:57;100354.44;;;18.01;100.00
4346;BME280;2186;49.866;7.986;2022-10-16T09:53:26;100349.81;;;18.19;100.00
4346;BME280;2186;49.866;7.986;2022-10-16T09:55:53;100349.91;;;18.17;100.00
4346;BME280;2186;49.866;7.986;2022-10-16T09:58:23;100349.56;;;18.23;100.00
4346;BME280;2186;49.866;7.986;2022-10-16T10:00:52;100355.59;;;18.27;100.00
4346;BME280;2186;49.866;7.986;2022-10-16T10:03:45;100354.91;;;18.53;100.00
4346;BME280;2186;49.866;7.986;2022-10-16T10:06:30;100351.91;;;19.02;100.00
4346;BME280;2186;49.866;7.986;2022-10-16T10:09:18;100362.88;;;18.71;100.00
4346;BME280;2186;49.866;7.986;2022-10-16T10:12:06;100370.47;;;18.64;100.00
4346;BME280;2186;49.866;7.986;2022-10-16T10:14:46;100354.03;;;18.69;100.00
4346;BME280;2186;49.866;7.986;2022-10-16T10:17:16;100355.75;;;18.84;100.00
4346;BME280;2186;49.866;7.986;2022-10-16T10:20:01;100352.31;;;18.96;100.00
4346;BME280;2186;49.866;7.986;2022-10-16T10:22:45;100346.81;;;18.69;100.00
4346;BME280;2186;49.866;7.986;2022-10-16T10:25:17;100347.63;;;18.55;100.00
4346;BME280;2186;49.866;7.986;2022-10-16T10:28:16;100347.09;;;18.64;100.00
4346;BME280;2186;49.866;7.986;2022-10-16T10:33:40;100362.53;;;19.05;100.00
4346;BME280;2186;49.866;7.986;2022-10-16T10:36:16;100351.25;;;19.13;100.00
4346;BME280;2186;49.866;7.986;2022-10-16T10:38:59;100359.34;;;18.99;100.00
4346;BME280;2186;49.866;7.986;2022-10-16T10:44:10;100360.00;;;19.02;100.00
4346;BME280;2186;49.866;7.986;2022-10-16T10:46:57;100358.75;;;18.93;100.00
4346;BME280;2186;49.866;7.986;2022-10-16T11:02:41;100355.47;;;19.03;100.00
4346;BME280;2186;49.866;7.986;2022-10-16T11:07:57;100345.56;;;19.03;100.00
4346;BME280;2186;49.866;7.986;2022-10-16T11:10:28;100357.81;;;19.23;100.00
4346;BME280;2186;49.866;7.986;2022-10-16T11:13:26;100348.25;;;19.32;100.00
4346;BME280;2186;49.866;7.986;2022-10-16T11:16:03;100350.88;;;19.19;100.00
4346;BME280;2186;49.866;7.986;2022-10-16T11:18:45;100348.59;;;19.68;100.00
4346;BME280;2186;49.866;7.986;2022-10-16T11:21:16;100343.81;;;19.59;100.00
4346;BME280;2186;49.866;7.986;2022-10-16T11:23:55;100349.03;;;19.89;100.00
4346;BME280;2186;49.866;7.986;2022-10-16T11:26:28;100340.38;;;20.11;100.00
4346;BME280;2186;49.866;7.986;2022-10-16T11:28:57;100336.19;;;20.20;100.00
4346;BME280;2186;49.866;7.986;2022-10-16T11:34:01;100331.56;;;20.34;100.00
4346;BME280;2186;49.866;7.986;2022-10-16T11:36:39;100323.94;;;20.14;100.00
4346;BME280;2186;49.866;7.986;2022-10-16T11:44:56;100337.09;;;20.33;100.00
4346;BME280;2186;49.866;7.986;2022-10-16T11:47:41;100337.16;;;20.58;100.00
4346;BME280;2186;49.866;7.986;2022-10-16T11:50:30;100336.09;;;20.74;100.00
4346;BME280;2186;49.866;7.986;2022-10-16T11:55:40;100330.47;;;20.77;100.00
4346;BME280;2186;49.866;7.986;2022-10-16T12:01:20;100339.88;;;20.71;100.00
4346;BME280;2186;49.866;7.986;2022-10-16T12:04:14;100335.31;;;21.10;100.00
4346;BME280;2186;49.866;7.986;2022-10-16T12:06:44;100337.25;;;21.20;100.00
4346;BME280;2186;49.866;7.986;2022-10-16T12:09:20;100332.09;;;21.30;100.00
4346;BME280;2186;49.866;7.986;2022-10-16T12:11:47;100331.97;;;21.32;100.00
4346;BME280;2186;49.866;7.986;2022-10-16T12:17:01;100336.59;;;21.42;100.00
4346;BME280;2186;49.866;7.986;2022-10-16T12:19:29;100337.34;;;21.44;100.00
4346;BME280;2186;49.866;7.986;2022-10-16T12:21:58;100332.53;;;21.61;100.00
4346;BME280;2186;49.866;7.986;2022-10-16T12:24:37;100336.34;;;21.58;100.00
4346;BME280;2186;49.866;7.986;2022-10-16T12:29:55;100330.16;;;21.69;100.00
4346;BME280;2186;49.866;7.986;2022-10-16T12:32:31;100333.69;;;21.82;100.00
4346;BME280;2186;49.866;7.986;2022-10-16T12:35:19;100326.94;;;21.87;100.00
4346;BME280;2186;49.866;7.986;2022-10-16T12:37:46;100335.00;;;22.00;100.00
4346;BME280;2186;49.866;7.986;2022-10-16T12:40:27;100324.84;;;21.91;99.81
4346;BME280;2186;49.866;7.986;2022-10-16T12:42:56;100326.50;;;22.05;100.00
4346;BME280;2186;49.866;7.986;2022-10-16T12:45:31;100319.72;;;21.99;100.00
4346;BME280;2186;49.866;7.986;2022-10-16T12:48:00;100324.41;;;21.97;100.00
4346;BME280;2186;49.866;7.986;2022-10-16T12:50:36;100326.50;;;22.05;100.00
4346;BME280;2186;49.866;7.986;2022-10-16T12:53:18;100335.31;;;22.08;100.00
4346;BME280;2186;49.866;7.986;2022-10-16T12:58:37;100329.66;;;22.11;100.00
4346;BME280;2186;49.866;7.986;2022-10-16T13:01:33;100339.31;;;22.27;100.00
4346;BME280;2186;49.866;7.986;2022-10-16T13:04:18;100340.50;;;22.11;100.00
4346;BME280;2186;49.866;7.986;2022-10-16T13:07:21;100346.19;;;22.20;100.00
4346;BME280;2186;49.866;7.986;2022-10-16T13:12:50;100352.06;;;22.13;99.05
4346;BME280;2186;49.866;7.986;2022-10-16T13:21:37;100355.59;;;21.90;100.00
4346;BME280;2186;49.866;7.986;2022-10-16T13:26:52;100348.34;;;21.67;100.00
4346;BME280;2186;49.866;7.986;2022-10-16T13:29:22;100335.03;;;21.87;100.00
4346;BME280;2186;49.866;7.986;2022-10-16T13:31:48;100328.53;;;21.90;100.00
4346;BME280;2186;49.866;7.986;2022-10-16T13:34:19;100324.63;;;21.94;100.00
4346;BME280;2186;49.866;7.986;2022-10-16T13:36:49;100321.34;;;22.02;100.00
4346;BME280;2186;49.866;7.986;2022-10-16T13:39:24;100307.88;;;22.13;100.00
4346;BME280;2186;49.866;7.986;2022-10-16T13:42:07;100318.22;;;22.08;100.00
4346;BME280;2186;49.866;7.986;2022-10-16T13:44:44;100327.72;;;22.01;100.00
4346;BME280;2186;49.866;7.986;2022-10-16T13:47:20;100321.66;;;22.10;100.00
4346;BME280;2186;49.866;7.986;2022-10-16T13:50:02;100327.72;;;22.01;100.00
4346;BME280;2186;49.866;7.986;2022-10-16T13:52:30;100330.06;;;21.94;100.00
4346;BME280;2186;49.866;7.986;2022-10-16T13:54:57;100329.94;;;21.96;100.00
4346;BME280;2186;49.866;7.986;2022-10-16T13:57:28;100330.38;;;21.89;100.00
4346;BME280;2186;49.866;7.986;2022-10-16T13:59:54;100328.25;;;21.82;100.00
4346;BME280;2186;49.866;7.986;2022-10-16T14:02:29;100333.13;;;21.77;100.00
4346;BME280;2186;49.866;7.986;2022-10-16T14:04:57;100332.69;;;21.83;100.00
4346;BME280;2186;49.866;7.986;2022-10-16T14:07:26;100333.72;;;21.69;100.00
4346;BME280;2186;49.866;7.986;2022-10-16T14:09:54;100331.41;;;21.76;100.00
4346;BME280;2186;49.866;7.986;2022-10-16T14:12:22;100334.00;;;21.77;100.00
4346;BME280;2186;49.866;7.986;2022-10-16T14:14:54;100326.97;;;21.75;100.00
4346;BME280;2186;49.866;7.986;2022-10-16T14:17:30;100334.53;;;21.82;100.00
4346;BME280;2186;49.866;7.986;2022-10-16T14:19:59;100344.88;;;21.88;100.00
4346;BME280;2186;49.866;7.986;2022-10-16T14:22:37;100346.63;;;21.66;100.00
4346;BME280;2186;49.866;7.986;2022-10-16T14:25:35;100349.84;;;21.71;100.00
4346;BME280;2186;49.866;7.986;2022-10-16T14:30:57;100335.63;;;21.80;100.00
4346;BME280;2186;49.866;7.986;2022-10-16T14:36:13;100335.66;;;21.91;100.00
4346;BME280;2186;49.866;7.986;2022-10-16T14:38:42;100343.28;;;21.86;100.00
4346;BME280;2186;49.866;7.986;2022-10-16T14:41:09;100345.13;;;21.85;100.00
4346;BME280;2186;49.866;7.986;2022-10-16T14:43:37;100341.97;;;21.68;100.00
4346;BME280;2186;49.866;7.986;2022-10-16T14:46:13;100347.06;;;21.59;100.00
4346;BME280;2186;49.866;7.986;2022-10-16T14:48:46;100345.22;;;21.60;100.00
4346;BME280;2186;49.866;7.986;2022-10-16T14:51:15;100341.56;;;21.48;100.00
4346;BME280;2186;49.866;7.986;2022-10-16T14:53:42;100329.44;;;21.54;100.00
4346;BME280;2186;49.866;7.986;2022-10-16T14:56:16;100339.69;;;21.62;100.00
4346;BME280;2186;49.866;7.986;2022-10-16T14:58:43;100347.28;;;21.56;100.00